createdAt,value
2022-08-07T00:02:59.256Z,9.90
2022-08-07T00:23:21.213Z,10.00
2022-08-07T00:27:51.824Z,9.70
2022-08-07T00:31:59.008Z,10.50
2022-08-07T00:48:36.172Z,12.50
2022-08-07T00:52:50.675Z,8.70
2022-08-07T01:13:37.995Z,9.50
2022-08-07T01:17:47.429Z,10.50
2022-08-07T01:33:58.214Z,9.70
2022-08-07T01:38:06.450Z,10.50
2022-08-07T01:42:38.057Z,9.40
2022-08-07T02:03:49.062Z,11.40
2022-08-07T02:07:59.154Z,11.60
2022-08-07T02:12:03.482Z,11.10
2022-08-07T02:36:59.294Z,13.80
2022-08-07T02:41:08.105Z,10.50
2022-08-07T03:05:51.465Z,11.40
2022-08-07T03:10:01.882Z,11.70
2022-08-07T03:14:11.138Z,11.80
2022-08-07T03:35:17.103Z,11.90
2022-08-07T03:39:46.308Z,12.10
2022-08-07T03:43:56.999Z,13.20
2022-08-07T03:48:10.105Z,10.50
2022-08-07T03:52:22.551Z,10.90
2022-08-07T04:09:06.356Z,9.70
2022-08-07T04:13:16.100Z,10.70
2022-08-07T04:18:04.647Z,11.50
2022-08-07T04:22:05.381Z,9.00
2022-08-07T04:38:48.873Z,10.30
2022-08-07T04:43:01.415Z,10.00
2022-08-07T04:47:56.776Z,10.00
2022-08-07T04:51:50.685Z,11.10
2022-08-07T04:58:24.303Z,9.80
2022-08-07T05:00:52.170Z,10.10
2022-08-07T05:05:52.936Z,9.30
2022-08-07T05:09:46.106Z,9.50
2022-08-07T05:14:52.379Z,9.40
2022-08-07T05:18:27.452Z,9.00
2022-08-07T05:22:26.563Z,12.30
2022-08-07T05:32:56.699Z,11.90
2022-08-07T05:35:42.729Z,9.40
2022-08-07T05:39:00.462Z,8.80
2022-08-07T05:42:01.120Z,8.10
2022-08-07T05:45:04.338Z,8.80
2022-08-07T05:48:58.478Z,9.10
2022-08-07T05:52:48.049Z,11.00
2022-08-07T05:56:05.802Z,8.60
2022-08-07T06:00:06.322Z,9.50
2022-08-07T06:04:08.606Z,6.90
2022-08-07T06:08:05.432Z,6.80
2022-08-07T06:11:34.005Z,7.00
2022-08-07T06:15:05.605Z,6.80
2022-08-07T06:50:16.106Z,4.40
2022-08-07T06:55:29.693Z,5.00
2022-08-07T06:57:13.368Z,5.80
2022-08-07T07:00:42.362Z,5.60
2022-08-07T07:04:32.409Z,6.40
2022-08-07T07:07:58.469Z,4.90
2022-08-07T07:10:47.615Z,6.00
2022-08-07T07:13:58.186Z,4.40
2022-08-07T07:17:15.997Z,7.80
2022-08-07T07:20:13.700Z,6.00
2022-08-07T07:24:06.107Z,5.00
2022-08-07T07:26:35.623Z,7.20
2022-08-07T07:29:40.276Z,6.40
2022-08-07T07:31:52.978Z,6.40
2022-08-07T07:35:08.075Z,6.40
2022-08-07T07:38:56.292Z,4.50
2022-08-07T07:46:55.823Z,9.20
2022-08-07T08:03:17.077Z,9.50
2022-08-07T08:07:35.924Z,7.20
2022-08-07T08:10:53.567Z,8.50
2022-08-07T08:14:38.560Z,7.60
2022-08-07T08:54:11.355Z,7.50
2022-08-07T08:57:48.273Z,8.70
2022-08-07T09:01:40.039Z,5.70
2022-08-07T09:05:18.237Z,4.60
2022-08-07T09:09:02.427Z,4.90
2022-08-07T09:12:59.311Z,5.50
2022-08-07T09:16:23.002Z,4.30
2022-08-07T09:20:57.940Z,4.20
2022-08-07T09:25:17.829Z,4.90
2022-08-07T09:30:06.239Z,6.80
2022-08-07T09:34:16.599Z,4.60
2022-08-07T09:38:34.465Z,5.10
2022-08-07T09:43:18.021Z,5.00
2022-08-07T09:47:55.924Z,6.10
2022-08-07T09:52:33.759Z,5.80
2022-08-07T09:56:39.224Z,6.30
2022-08-07T10:00:52.786Z,5.80
2022-08-07T10:05:12.778Z,4.50
2022-08-07T10:09:42.755Z,5.00
2022-08-07T10:14:22.611Z,4.30
2022-08-07T10:19:15.064Z,7.20
2022-08-07T10:22:45.258Z,5.50
2022-08-07T10:26:05.450Z,4.40
2022-08-07T10:30:17.357Z,3.70
2022-08-07T10:34:15.483Z,14.60
2022-08-07T10:38:48.953Z,4.40
2022-08-07T10:42:46.785Z,4.80
2022-08-07T10:47:01.320Z,3.30
2022-08-07T10:51:16.637Z,5.20
2022-08-07T10:55:43.671Z,3.50
2022-08-07T10:59:24.929Z,4.50
2022-08-07T11:03:51.315Z,4.60
2022-08-07T11:08:12.184Z,3.30
2022-08-07T11:11:59.280Z,3.90
2022-08-07T11:15:37.222Z,3.50
2022-08-07T11:19:27.452Z,3.50
2022-08-07T11:23:09.423Z,3.30
2022-08-07T11:26:50.739Z,3.10
2022-08-07T11:30:18.367Z,4.00
2022-08-07T11:33:53.784Z,8.30
2022-08-07T11:37:57.779Z,4.70
2022-08-07T11:42:01.688Z,3.00
2022-08-07T11:46:03.746Z,3.00
2022-08-07T11:50:18.499Z,2.40
2022-08-07T11:54:10.421Z,3.20
2022-08-07T11:57:59.989Z,3.40
2022-08-07T12:01:04.451Z,4.50
2022-08-07T12:03:57.560Z,4.10
2022-08-07T12:06:51.727Z,4.10
2022-08-07T12:09:29.304Z,3.80
2022-08-07T12:12:12.147Z,3.60
2022-08-07T12:15:58.034Z,4.60
2022-08-07T12:18:29.886Z,2.90
2022-08-07T12:21:55.797Z,4.30
2022-08-07T12:26:02.999Z,2.70
2022-08-07T12:30:34.885Z,5.30
2022-08-07T12:34:33.485Z,3.90
2022-08-07T12:38:11.403Z,3.20
2022-08-07T12:42:27.979Z,3.30
2022-08-07T12:46:32.840Z,3.40
2022-08-07T12:51:00.841Z,4.60
2022-08-07T12:55:24.914Z,19.20
2022-08-07T12:59:54.920Z,7.50
2022-08-07T13:04:05.606Z,4.60
2022-08-07T13:08:35.846Z,3.80
2022-08-07T13:22:19.829Z,6.30
2022-08-07T13:26:48.442Z,3.50
2022-08-07T13:31:13.449Z,3.30
2022-08-07T13:36:00.910Z,3.80
2022-08-07T13:40:36.216Z,4.60
2022-08-07T14:05:10.674Z,4.90
2022-08-07T14:08:59.385Z,3.90
2022-08-07T14:12:49.122Z,4.30
2022-08-07T14:16:45.080Z,4.60
2022-08-07T14:20:40.693Z,3.90
2022-08-07T14:52:19.126Z,4.20
2022-08-07T14:56:30.172Z,4.10
2022-08-07T15:00:29.915Z,2.30
2022-08-07T15:03:51.340Z,2.90
2022-08-07T15:16:19.794Z,4.40
2022-08-07T15:37:04.087Z,4.10
2022-08-07T15:41:23.033Z,7.40
2022-08-07T15:48:20.534Z,4.90
2022-08-07T16:22:19.278Z,4.00
2022-08-07T16:26:36.687Z,3.60
2022-08-07T16:30:31.973Z,5.60
2022-08-07T16:34:05.955Z,4.50
2022-08-07T16:38:06.925Z,5.60
2022-08-07T16:42:06.747Z,8.10
2022-08-07T16:47:06.682Z,6.20
2022-08-07T16:51:20.774Z,5.90
2022-08-07T16:55:47.053Z,8.60
2022-08-07T16:59:58.241Z,8.40
2022-08-07T17:03:04.977Z,8.30
2022-08-07T17:06:30.662Z,10.80
2022-08-07T17:10:36.747Z,9.70
2022-08-07T17:14:46.137Z,6.60
2022-08-07T17:18:53.686Z,6.50
2022-08-07T17:23:00.928Z,7.80
2022-08-07T17:27:19.815Z,10.60
2022-08-07T17:31:31.689Z,10.30
2022-08-07T17:35:54.779Z,11.20
2022-08-07T17:40:18.856Z,8.20
2022-08-07T17:44:45.259Z,10.00
2022-08-07T17:49:09.193Z,9.30
2022-08-07T17:54:00.374Z,8.90
2022-08-07T18:45:43.113Z,7.40
2022-08-07T18:54:30.617Z,8.10
2022-08-07T18:58:57.968Z,7.50
2022-08-07T19:03:19.674Z,9.80
2022-08-07T19:08:10.416Z,10.10
2022-08-07T19:12:30.093Z,5.60
2022-08-07T19:17:06.351Z,8.60
2022-08-07T19:21:53.320Z,16.90
2022-08-07T19:26:24.687Z,6.90
2022-08-07T19:31:01.642Z,5.20
2022-08-07T19:35:04.562Z,7.30
2022-08-07T20:00:10.079Z,8.60
2022-08-07T20:04:31.675Z,7.30
2022-08-07T20:08:29.562Z,8.90
2022-08-07T20:12:39.786Z,7.00
2022-08-07T20:37:59.222Z,22.60
2022-08-07T20:42:09.250Z,11.90
2022-08-07T20:58:49.597Z,5.80
2022-08-07T21:03:25.498Z,13.00
2022-08-07T21:07:32.673Z,9.90
2022-08-07T21:32:47.734Z,4.90
2022-08-07T21:37:03.990Z,3.40
2022-08-07T21:41:52.121Z,5.90
2022-08-07T21:46:25.014Z,3.20
2022-08-07T21:50:51.404Z,3.00
2022-08-07T21:55:29.904Z,3.70
2022-08-07T22:00:04.970Z,4.90
2022-08-07T22:04:06.199Z,3.90
2022-08-07T22:08:18.864Z,3.60
2022-08-07T22:12:31.705Z,4.20
2022-08-07T22:16:46.898Z,4.60
2022-08-07T22:21:01.886Z,5.40
2022-08-07T22:25:19.022Z,3.00
2022-08-07T22:29:47.328Z,3.20
2022-08-07T22:33:53.222Z,3.60
2022-08-07T22:38:12.473Z,3.90
2022-08-07T22:42:44.485Z,3.20
2022-08-07T22:47:29.373Z,4.10
2022-08-07T22:52:08.070Z,4.10
2022-08-07T22:56:42.834Z,4.00
2022-08-07T23:01:00.447Z,4.80
2022-08-07T23:06:09.777Z,3.10
2022-08-07T23:10:37.380Z,3.70
2022-08-07T23:14:38.769Z,4.10
2022-08-07T23:19:02.696Z,5.00
2022-08-07T23:24:06.328Z,3.20
2022-08-07T23:28:22.857Z,3.30
2022-08-07T23:34:23.670Z,3.30
2022-08-07T23:37:18.683Z,3.40
2022-08-07T23:41:47.416Z,4.30
2022-08-07T23:46:33.802Z,4.60
2022-08-07T23:52:58.680Z,3.90
2022-08-07T23:55:53.573Z,3.60
